CheckWX is a tool to help pilots better visualize weather data.  It is not intended as a substitute for an official pre-flight weather briefing.

21:06:16 UTC

KGSB METAR
Seymour Johnson AFB Airport
Goldsboro, North Carolina, USA
Current

10 mins ago

KGSB 232056Z AUTO 24013KT 10SM SCT045 BKN095 31/20 A3013 RMK AO2 RAB35E45 SLP205 P0000 60000 T03060202 57026 $
Observed
May-23 @ 20:56 UTC
Wind
  • 240° at 13 KTS
Visibility
10 SM
Flight Rules
VFR
Cloud Levels
  • Scattered at 4,500' AGL
  • Broken at 9,500' AGL
Temperature
31°C / 88°F
Dewpoint
20°C / 68°F
Heat Index
33°C / 92°F
Humidity
52%
Altimeter
30.13" Hg
Pressure
1020.32 hPa
Current Rain
0.01"
Previous

31 mins ago

KGSB 232035Z AUTO 25013KT 10SM -RA FEW110 31/20 A3014 RMK AO2 RAB35 SLP209 $
Observed
May-23 @ 20:35 UTC
Wind
  • 250° at 13 KTS
Visibility
10 SM
Flight Rules
VFR
Conditions
Light Rain
Cloud Levels
  • Few at 11,000' AGL
Temperature
31°C / 88°F
Dewpoint
20°C / 68°F
Heat Index
33°C / 92°F
Humidity
52%
Altimeter
30.14" Hg
Pressure
1020.62 hPa
Previous

2 hours ago

KGSB 231859Z AUTO 23013KT 10SM CLR 31/20 A3017 RMK AO2 WSHFT 53 SLP219 $
Observed
May-23 @ 18:59 UTC
Wind
  • 230° at 13 KTS
Visibility
10 SM
Flight Rules
VFR
Cloud Levels
  • Clear skies
Temperature
31°C / 88°F
Dewpoint
20°C / 68°F
Heat Index
33°C / 92°F
Humidity
52%
Altimeter
30.17" Hg
Pressure
1021.72 hPa